sensor_id;sensor_type;location;lat;lon;timestamp;P1;durP1;ratioP1;P2;durP2;ratioP2
62798;SDS011;48842;51.046;13.796;2023-05-19T00:00:30;7.03;;;4.00;;
62798;SDS011;48842;51.046;13.796;2023-05-19T00:02:55;6.93;;;4.00;;
62798;SDS011;48842;51.046;13.796;2023-05-19T00:05:21;5.30;;;3.77;;
62798;SDS011;48842;51.046;13.796;2023-05-19T00:07:46;3.93;;;3.50;;
62798;SDS011;48842;51.046;13.796;2023-05-19T00:10:16;5.80;;;4.60;;
62798;SDS011;48842;51.046;13.796;2023-05-19T00:12:41;6.77;;;3.90;;
62798;SDS011;48842;51.046;13.796;2023-05-19T00:15:07;10.17;;;3.80;;
62798;SDS011;48842;51.046;13.796;2023-05-19T00:17:34;4.00;;;3.60;;
62798;SDS011;48842;51.046;13.796;2023-05-19T00:20:00;4.03;;;3.53;;
62798;SDS011;48842;51.046;13.796;2023-05-19T00:22:31;8.23;;;3.93;;
62798;SDS011;48842;51.046;13.796;2023-05-19T00:24:56;4.90;;;3.80;;
62798;SDS011;48842;51.046;13.796;2023-05-19T00:27:21;3.83;;;3.37;;
62798;SDS011;48842;51.046;13.796;2023-05-19T00:29:46;7.37;;;3.80;;
62798;SDS011;48842;51.046;13.796;2023-05-19T00:32:12;5.70;;;3.70;;
62798;SDS011;48842;51.046;13.796;2023-05-19T00:34:37;5.73;;;3.10;;
62798;SDS011;48842;51.046;13.796;2023-05-19T00:37:02;4.67;;;2.90;;
62798;SDS011;48842;51.046;13.796;2023-05-19T00:39:27;7.37;;;3.67;;
62798;SDS011;48842;51.046;13.796;2023-05-19T00:41:53;5.00;;;3.40;;
62798;SDS011;48842;51.046;13.796;2023-05-19T00:44:18;4.50;;;3.50;;
62798;SDS011;48842;51.046;13.796;2023-05-19T00:46:43;7.20;;;3.70;;
62798;SDS011;48842;51.046;13.796;2023-05-19T00:49:08;5.47;;;3.60;;
62798;SDS011;48842;51.046;13.796;2023-05-19T00:51:34;3.87;;;3.13;;
62798;SDS011;48842;51.046;13.796;2023-05-19T00:53:59;4.70;;;3.40;;
62798;SDS011;48842;51.046;13.796;2023-05-19T00:56:25;5.70;;;4.50;;
62798;SDS011;48842;51.046;13.796;2023-05-19T00:58:50;4.60;;;3.73;;
62798;SDS011;48842;51.046;13.796;2023-05-19T01:01:16;6.73;;;3.30;;
62798;SDS011;48842;51.046;13.796;2023-05-19T01:03:41;6.30;;;3.13;;
62798;SDS011;48842;51.046;13.796;2023-05-19T01:06:07;3.70;;;3.37;;
62798;SDS011;48842;51.046;13.796;2023-05-19T01:08:33;6.80;;;3.33;;
62798;SDS011;48842;51.046;13.796;2023-05-19T01:11:00;8.40;;;3.63;;
62798;SDS011;48842;51.046;13.796;2023-05-19T01:13:28;4.90;;;3.13;;
62798;SDS011;48842;51.046;13.796;2023-05-19T01:27:23;6.53;;;3.20;;
62798;SDS011;48842;51.046;13.796;2023-05-19T01:30:22;3.80;;;2.70;;
62798;SDS011;48842;51.046;13.796;2023-05-19T01:32:55;7.67;;;4.13;;
62798;SDS011;48842;51.046;13.796;2023-05-19T01:35:24;8.03;;;3.37;;
62798;SDS011;48842;51.046;13.796;2023-05-19T01:37:51;4.73;;;3.50;;
62798;SDS011;48842;51.046;13.796;2023-05-19T01:40:20;4.60;;;3.00;;
62798;SDS011;48842;51.046;13.796;2023-05-19T01:42:46;5.80;;;3.40;;
62798;SDS011;48842;51.046;13.796;2023-05-19T01:45:13;5.60;;;3.40;;
62798;SDS011;48842;51.046;13.796;2023-05-19T01:47:40;4.53;;;3.53;;
62798;SDS011;48842;51.046;13.796;2023-05-19T01:50:07;8.23;;;3.10;;
62798;SDS011;48842;51.046;13.796;2023-05-19T01:52:32;3.80;;;3.20;;
62798;SDS011;48842;51.046;13.796;2023-05-19T01:54:58;7.30;;;3.40;;
62798;SDS011;48842;51.046;13.796;2023-05-19T01:57:28;5.40;;;2.93;;
62798;SDS011;48842;51.046;13.796;2023-05-19T02:05:38;4.23;;;3.03;;
62798;SDS011;48842;51.046;13.796;2023-05-19T02:10:57;5.20;;;3.83;;
62798;SDS011;48842;51.046;13.796;2023-05-19T02:13:28;4.80;;;3.17;;
62798;SDS011;48842;51.046;13.796;2023-05-19T02:15:59;4.77;;;2.50;;
62798;SDS011;48842;51.046;13.796;2023-05-19T02:18:28;6.50;;;3.60;;
62798;SDS011;48842;51.046;13.796;2023-05-19T02:20:54;6.73;;;2.87;;
62798;SDS011;48842;51.046;13.796;2023-05-19T02:23:19;4.73;;;2.73;;
62798;SDS011;48842;51.046;13.796;2023-05-19T02:25:44;5.63;;;3.07;;
62798;SDS011;48842;51.046;13.796;2023-05-19T02:28:10;4.73;;;3.00;;
62798;SDS011;48842;51.046;13.796;2023-05-19T02:30:35;3.83;;;3.53;;
62798;SDS011;48842;51.046;13.796;2023-05-19T02:33:00;5.00;;;3.27;;
62798;SDS011;48842;51.046;13.796;2023-05-19T02:35:25;6.03;;;3.70;;
62798;SDS011;48842;51.046;13.796;2023-05-19T02:37:51;3.77;;;3.10;;
62798;SDS011;48842;51.046;13.796;2023-05-19T02:40:18;3.03;;;2.70;;
62798;SDS011;48842;51.046;13.796;2023-05-19T02:42:43;5.50;;;3.27;;
62798;SDS011;48842;51.046;13.796;2023-05-19T02:45:08;6.30;;;3.60;;
62798;SDS011;48842;51.046;13.796;2023-05-19T02:47:34;6.07;;;3.97;;
62798;SDS011;48842;51.046;13.796;2023-05-19T02:49:59;4.63;;;3.20;;
62798;SDS011;48842;51.046;13.796;2023-05-19T02:52:24;4.47;;;3.77;;
62798;SDS011;48842;51.046;13.796;2023-05-19T02:54:50;4.90;;;3.30;;
62798;SDS011;48842;51.046;13.796;2023-05-19T02:57:15;4.63;;;3.03;;
62798;SDS011;48842;51.046;13.796;2023-05-19T02:59:40;5.40;;;3.70;;
62798;SDS011;48842;51.046;13.796;2023-05-19T03:02:06;4.60;;;3.30;;
62798;SDS011;48842;51.046;13.796;2023-05-19T03:04:31;18.00;;;4.10;;
62798;SDS011;48842;51.046;13.796;2023-05-19T03:06:57;6.10;;;4.07;;
62798;SDS011;48842;51.046;13.796;2023-05-19T03:09:22;4.33;;;3.10;;
62798;SDS011;48842;51.046;13.796;2023-05-19T03:11:47;5.63;;;3.27;;
62798;SDS011;48842;51.046;13.796;2023-05-19T03:14:12;6.33;;;3.93;;
62798;SDS011;48842;51.046;13.796;2023-05-19T03:16:38;4.40;;;3.40;;
62798;SDS011;48842;51.046;13.796;2023-05-19T03:19:05;5.80;;;3.70;;
62798;SDS011;48842;51.046;13.796;2023-05-19T03:21:31;4.70;;;2.93;;
62798;SDS011;48842;51.046;13.796;2023-05-19T03:23:56;3.70;;;3.40;;
62798;SDS011;48842;51.046;13.796;2023-05-19T03:26:21;5.10;;;3.10;;
62798;SDS011;48842;51.046;13.796;2023-05-19T03:28:47;9.80;;;4.20;;
62798;SDS011;48842;51.046;13.796;2023-05-19T03:31:12;3.60;;;3.30;;
62798;SDS011;48842;51.046;13.796;2023-05-19T03:33:37;7.73;;;3.57;;
62798;SDS011;48842;51.046;13.796;2023-05-19T03:36:02;6.03;;;3.70;;
62798;SDS011;48842;51.046;13.796;2023-05-19T03:38:28;3.73;;;3.40;;
62798;SDS011;48842;51.046;13.796;2023-05-19T03:40:53;5.50;;;3.43;;
62798;SDS011;48842;51.046;13.796;2023-05-19T03:43:18;4.80;;;3.83;;
62798;SDS011;48842;51.046;13.796;2023-05-19T03:45:44;8.20;;;3.47;;
62798;SDS011;48842;51.046;13.796;2023-05-19T03:48:09;4.70;;;3.70;;
62798;SDS011;48842;51.046;13.796;2023-05-19T03:50:34;8.23;;;3.53;;
62798;SDS011;48842;51.046;13.796;2023-05-19T03:53:01;4.80;;;3.60;;
62798;SDS011;48842;51.046;13.796;2023-05-19T03:55:27;4.13;;;3.50;;
62798;SDS011;48842;51.046;13.796;2023-05-19T03:57:53;7.30;;;3.20;;
62798;SDS011;48842;51.046;13.796;2023-05-19T04:00:19;10.50;;;3.97;;
62798;SDS011;48842;51.046;13.796;2023-05-19T04:02:44;3.40;;;3.00;;
62798;SDS011;48842;51.046;13.796;2023-05-19T04:05:09;4.33;;;3.93;;
62798;SDS011;48842;51.046;13.796;2023-05-19T04:07:34;3.90;;;3.53;;
62798;SDS011;48842;51.046;13.796;2023-05-19T04:10:02;8.30;;;3.77;;
62798;SDS011;48842;51.046;13.796;2023-05-19T04:12:28;9.30;;;4.17;;
62798;SDS011;48842;51.046;13.796;2023-05-19T04:14:53;8.30;;;3.87;;
62798;SDS011;48842;51.046;13.796;2023-05-19T04:17:19;4.23;;;3.83;;
62798;SDS011;48842;51.046;13.796;2023-05-19T04:19:44;4.17;;;3.57;;
62798;SDS011;48842;51.046;13.796;2023-05-19T04:22:09;4.70;;;3.70;;
62798;SDS011;48842;51.046;13.796;2023-05-19T04:24:35;4.07;;;3.40;;
62798;SDS011;48842;51.046;13.796;2023-05-19T04:27:00;5.90;;;3.07;;
62798;SDS011;48842;51.046;13.796;2023-05-19T04:29:27;6.87;;;3.53;;
62798;SDS011;48842;51.046;13.796;2023-05-19T04:31:53;5.53;;;3.37;;
62798;SDS011;48842;51.046;13.796;2023-05-19T04:34:19;4.67;;;3.60;;
62798;SDS011;48842;51.046;13.796;2023-05-19T04:36:44;6.33;;;3.50;;
62798;SDS011;48842;51.046;13.796;2023-05-19T04:39:09;5.73;;;3.37;;
62798;SDS011;48842;51.046;13.796;2023-05-19T04:41:36;4.53;;;4.13;;
62798;SDS011;48842;51.046;13.796;2023-05-19T04:44:04;5.77;;;4.10;;
62798;SDS011;48842;51.046;13.796;2023-05-19T04:46:30;5.07;;;3.03;;
62798;SDS011;48842;51.046;13.796;2023-05-19T04:48:56;4.07;;;3.67;;
62798;SDS011;48842;51.046;13.796;2023-05-19T04:51:21;3.03;;;2.77;;
62798;SDS011;48842;51.046;13.796;2023-05-19T04:53:51;7.60;;;3.40;;
62798;SDS011;48842;51.046;13.796;2023-05-19T04:56:18;3.03;;;2.83;;
62798;SDS011;48842;51.046;13.796;2023-05-19T04:58:43;4.80;;;3.23;;
62798;SDS011;48842;51.046;13.796;2023-05-19T05:01:08;5.73;;;3.37;;
62798;SDS011;48842;51.046;13.796;2023-05-19T05:03:34;8.83;;;3.50;;
62798;SDS011;48842;51.046;13.796;2023-05-19T05:06:00;3.40;;;3.10;;
62798;SDS011;48842;51.046;13.796;2023-05-19T05:08:25;6.63;;;3.60;;
62798;SDS011;48842;51.046;13.796;2023-05-19T05:10:51;4.30;;;3.27;;
62798;SDS011;48842;51.046;13.796;2023-05-19T05:13:21;5.57;;;3.13;;
62798;SDS011;48842;51.046;13.796;2023-05-19T05:15:47;4.00;;;2.90;;
62798;SDS011;48842;51.046;13.796;2023-05-19T05:18:12;7.73;;;3.53;;
62798;SDS011;48842;51.046;13.796;2023-05-19T05:20:39;5.60;;;3.50;;
62798;SDS011;48842;51.046;13.796;2023-05-19T05:23:05;5.60;;;3.33;;
62798;SDS011;48842;51.046;13.796;2023-05-19T05:25:33;5.20;;;3.90;;
62798;SDS011;48842;51.046;13.796;2023-05-19T05:27:59;3.20;;;2.93;;
62798;SDS011;48842;51.046;13.796;2023-05-19T05:30:28;4.00;;;3.60;;
62798;SDS011;48842;51.046;13.796;2023-05-19T05:32:54;4.73;;;3.50;;
62798;SDS011;48842;51.046;13.796;2023-05-19T05:35:19;4.93;;;3.33;;
62798;SDS011;48842;51.046;13.796;2023-05-19T05:37:47;4.00;;;3.53;;
62798;SDS011;48842;51.046;13.796;2023-05-19T05:40:12;3.93;;;3.60;;
62798;SDS011;48842;51.046;13.796;2023-05-19T05:42:38;5.17;;;3.50;;
62798;SDS011;48842;51.046;13.796;2023-05-19T05:45:03;8.33;;;3.67;;
62798;SDS011;48842;51.046;13.796;2023-05-19T05:47:29;5.07;;;3.27;;
62798;SDS011;48842;51.046;13.796;2023-05-19T05:49:54;14.50;;;3.50;;
62798;SDS011;48842;51.046;13.796;2023-05-19T05:52:19;4.10;;;3.70;;
62798;SDS011;48842;51.046;13.796;2023-05-19T05:54:46;5.13;;;3.70;;
62798;SDS011;48842;51.046;13.796;2023-05-19T05:57:11;5.20;;;3.67;;
62798;SDS011;48842;51.046;13.796;2023-05-19T05:59:37;3.30;;;3.10;;
62798;SDS011;48842;51.046;13.796;2023-05-19T06:02:02;5.43;;;3.37;;
62798;SDS011;48842;51.046;13.796;2023-05-19T06:04:28;5.40;;;3.60;;
62798;SDS011;48842;51.046;13.796;2023-05-19T06:06:53;4.73;;;3.40;;
62798;SDS011;48842;51.046;13.796;2023-05-19T06:09:24;3.50;;;3.00;;
62798;SDS011;48842;51.046;13.796;2023-05-19T06:11:50;4.73;;;3.23;;
62798;SDS011;48842;51.046;13.796;2023-05-19T06:14:15;4.53;;;3.17;;
62798;SDS011;48842;51.046;13.796;2023-05-19T06:16:40;8.50;;;3.30;;
62798;SDS011;48842;51.046;13.796;2023-05-19T06:19:06;4.30;;;3.33;;
62798;SDS011;48842;51.046;13.796;2023-05-19T06:21:31;9.37;;;4.13;;
62798;SDS011;48842;51.046;13.796;2023-05-19T06:23:56;5.23;;;3.07;;
62798;SDS011;48842;51.046;13.796;2023-05-19T06:26:21;5.83;;;3.33;;
62798;SDS011;48842;51.046;13.796;2023-05-19T06:28:47;5.60;;;3.57;;
62798;SDS011;48842;51.046;13.796;2023-05-19T06:31:12;3.30;;;2.97;;
62798;SDS011;48842;51.046;13.796;2023-05-19T06:33:37;5.10;;;2.90;;
62798;SDS011;48842;51.046;13.796;2023-05-19T06:36:02;4.20;;;3.40;;
62798;SDS011;48842;51.046;13.796;2023-05-19T06:38:28;5.10;;;3.33;;
62798;SDS011;48842;51.046;13.796;2023-05-19T06:40:53;3.37;;;3.13;;
62798;SDS011;48842;51.046;13.796;2023-05-19T06:43:18;3.60;;;3.30;;
62798;SDS011;48842;51.046;13.796;2023-05-19T06:45:43;5.90;;;3.90;;
62798;SDS011;48842;51.046;13.796;2023-05-19T06:48:09;8.13;;;4.40;;
62798;SDS011;48842;51.046;13.796;2023-05-19T06:50:34;11.40;;;3.97;;
62798;SDS011;48842;51.046;13.796;2023-05-19T06:52:59;3.87;;;3.57;;
62798;SDS011;48842;51.046;13.796;2023-05-19T06:55:25;6.60;;;4.00;;
62798;SDS011;48842;51.046;13.796;2023-05-19T06:57:50;5.47;;;3.73;;
62798;SDS011;48842;51.046;13.796;2023-05-19T07:00:16;4.43;;;4.03;;
62798;SDS011;48842;51.046;13.796;2023-05-19T07:02:42;5.87;;;4.10;;
62798;SDS011;48842;51.046;13.796;2023-05-19T07:05:08;7.47;;;4.03;;
62798;SDS011;48842;51.046;13.796;2023-05-19T07:07:33;9.43;;;4.13;;
62798;SDS011;48842;51.046;13.796;2023-05-19T07:09:58;4.33;;;3.80;;
62798;SDS011;48842;51.046;13.796;2023-05-19T07:12:23;5.30;;;4.80;;
62798;SDS011;48842;51.046;13.796;2023-05-19T07:14:50;6.23;;;3.90;;
62798;SDS011;48842;51.046;13.796;2023-05-19T07:17:15;6.73;;;4.80;;
62798;SDS011;48842;51.046;13.796;2023-05-19T07:19:41;5.23;;;4.70;;
62798;SDS011;48842;51.046;13.796;2023-05-19T07:22:06;6.93;;;4.20;;
62798;SDS011;48842;51.046;13.796;2023-05-19T07:24:31;4.30;;;3.93;;
62798;SDS011;48842;51.046;13.796;2023-05-19T07:26:56;4.87;;;3.90;;
62798;SDS011;48842;51.046;13.796;2023-05-19T07:29:22;9.43;;;4.50;;
62798;SDS011;48842;51.046;13.796;2023-05-19T07:31:48;4.73;;;4.00;;
62798;SDS011;48842;51.046;13.796;2023-05-19T07:34:18;6.20;;;4.23;;
62798;SDS011;48842;51.046;13.796;2023-05-19T07:36:43;9.70;;;4.47;;
62798;SDS011;48842;51.046;13.796;2023-05-19T07:39:08;5.43;;;3.87;;
62798;SDS011;48842;51.046;13.796;2023-05-19T07:41:34;5.30;;;4.03;;
62798;SDS011;48842;51.046;13.796;2023-05-19T07:43:59;4.30;;;3.57;;
62798;SDS011;48842;51.046;13.796;2023-05-19T07:46:25;5.40;;;3.57;;
62798;SDS011;48842;51.046;13.796;2023-05-19T07:48:50;4.70;;;3.70;;
62798;SDS011;48842;51.046;13.796;2023-05-19T07:51:15;4.07;;;3.60;;
62798;SDS011;48842;51.046;13.796;2023-05-19T07:53:40;7.37;;;3.53;;
62798;SDS011;48842;51.046;13.796;2023-05-19T07:56:06;8.70;;;3.63;;
62798;SDS011;48842;51.046;13.796;2023-05-19T07:58:31;11.53;;;2.87;;
62798;SDS011;48842;51.046;13.796;2023-05-19T08:00:56;3.40;;;2.90;;
62798;SDS011;48842;51.046;13.796;2023-05-19T08:03:22;4.50;;;3.40;;
62798;SDS011;48842;51.046;13.796;2023-05-19T08:05:48;3.37;;;2.80;;
62798;SDS011;48842;51.046;13.796;2023-05-19T08:08:13;5.80;;;3.03;;
62798;SDS011;48842;51.046;13.796;2023-05-19T08:10:40;3.97;;;3.10;;
62798;SDS011;48842;51.046;13.796;2023-05-19T08:13:06;5.20;;;3.00;;
62798;SDS011;48842;51.046;13.796;2023-05-19T08:15:31;3.13;;;2.90;;
62798;SDS011;48842;51.046;13.796;2023-05-19T08:17:56;10.70;;;3.70;;
62798;SDS011;48842;51.046;13.796;2023-05-19T08:20:21;4.97;;;3.77;;
62798;SDS011;48842;51.046;13.796;2023-05-19T08:22:48;5.10;;;3.63;;
62798;SDS011;48842;51.046;13.796;2023-05-19T08:25:13;4.50;;;3.40;;
62798;SDS011;48842;51.046;13.796;2023-05-19T08:27:38;7.50;;;4.10;;
62798;SDS011;48842;51.046;13.796;2023-05-19T08:30:04;4.83;;;3.50;;
62798;SDS011;48842;51.046;13.796;2023-05-19T08:32:30;6.87;;;4.00;;
62798;SDS011;48842;51.046;13.796;2023-05-19T08:34:55;4.10;;;3.13;;
62798;SDS011;48842;51.046;13.796;2023-05-19T08:37:20;4.00;;;2.87;;
62798;SDS011;48842;51.046;13.796;2023-05-19T08:39:46;3.97;;;3.63;;
62798;SDS011;48842;51.046;13.796;2023-05-19T08:42:11;7.00;;;3.70;;
62798;SDS011;48842;51.046;13.796;2023-05-19T08:44:36;8.67;;;3.53;;
62798;SDS011;48842;51.046;13.796;2023-05-19T08:47:02;8.80;;;4.23;;
62798;SDS011;48842;51.046;13.796;2023-05-19T08:49:41;4.17;;;3.83;;
62798;SDS011;48842;51.046;13.796;2023-05-19T08:52:08;8.57;;;4.33;;
62798;SDS011;48842;51.046;13.796;2023-05-19T08:57:35;5.77;;;3.80;;
62798;SDS011;48842;51.046;13.796;2023-05-19T09:00:02;9.63;;;4.03;;
62798;SDS011;48842;51.046;13.796;2023-05-19T09:02:36;8.97;;;3.70;;
62798;SDS011;48842;51.046;13.796;2023-05-19T09:05:03;5.03;;;3.97;;
62798;SDS011;48842;51.046;13.796;2023-05-19T09:07:33;4.70;;;3.43;;
62798;SDS011;48842;51.046;13.796;2023-05-19T09:10:00;5.47;;;3.33;;
62798;SDS011;48842;51.046;13.796;2023-05-19T09:12:26;8.70;;;3.70;;
62798;SDS011;48842;51.046;13.796;2023-05-19T09:14:51;3.37;;;3.07;;
62798;SDS011;48842;51.046;13.796;2023-05-19T09:17:16;5.57;;;3.07;;
62798;SDS011;48842;51.046;13.796;2023-05-19T09:19:43;3.97;;;3.40;;
62798;SDS011;48842;51.046;13.796;2023-05-19T09:22:08;2.93;;;2.70;;
62798;SDS011;48842;51.046;13.796;2023-05-19T09:24:34;13.73;;;3.43;;
62798;SDS011;48842;51.046;13.796;2023-05-19T09:27:00;3.77;;;3.23;;
62798;SDS011;48842;51.046;13.796;2023-05-19T09:29:26;7.33;;;3.10;;
62798;SDS011;48842;51.046;13.796;2023-05-19T09:31:52;3.10;;;2.90;;
62798;SDS011;48842;51.046;13.796;2023-05-19T09:34:18;9.57;;;3.20;;
62798;SDS011;48842;51.046;13.796;2023-05-19T09:36:45;3.33;;;2.87;;
62798;SDS011;48842;51.046;13.796;2023-05-19T09:39:16;9.83;;;3.33;;
62798;SDS011;48842;51.046;13.796;2023-05-19T09:41:46;6.27;;;3.57;;
62798;SDS011;48842;51.046;13.796;2023-05-19T09:44:25;5.23;;;3.50;;
62798;SDS011;48842;51.046;13.796;2023-05-19T09:46:53;4.67;;;3.20;;
62798;SDS011;48842;51.046;13.796;2023-05-19T09:49:19;5.37;;;3.30;;
62798;SDS011;48842;51.046;13.796;2023-05-19T09:51:55;3.70;;;3.33;;
62798;SDS011;48842;51.046;13.796;2023-05-19T09:54:21;3.87;;;3.07;;
62798;SDS011;48842;51.046;13.796;2023-05-19T09:56:51;4.60;;;3.23;;
62798;SDS011;48842;51.046;13.796;2023-05-19T09:59:22;5.17;;;3.90;;
62798;SDS011;48842;51.046;13.796;2023-05-19T10:01:49;3.83;;;3.43;;
62798;SDS011;48842;51.046;13.796;2023-05-19T10:04:17;4.80;;;3.20;;
62798;SDS011;48842;51.046;13.796;2023-05-19T10:06:42;7.60;;;3.53;;
62798;SDS011;48842;51.046;13.796;2023-05-19T10:09:08;4.03;;;3.63;;
62798;SDS011;48842;51.046;13.796;2023-05-19T10:11:34;5.20;;;3.57;;
62798;SDS011;48842;51.046;13.796;2023-05-19T10:13:59;6.40;;;3.53;;
62798;SDS011;48842;51.046;13.796;2023-05-19T10:16:24;5.07;;;3.70;;
62798;SDS011;48842;51.046;13.796;2023-05-19T10:18:50;12.47;;;4.23;;
62798;SDS011;48842;51.046;13.796;2023-05-19T10:21:19;7.87;;;3.63;;
62798;SDS011;48842;51.046;13.796;2023-05-19T10:23:44;5.60;;;4.10;;
62798;SDS011;48842;51.046;13.796;2023-05-19T10:26:10;3.47;;;3.07;;
62798;SDS011;48842;51.046;13.796;2023-05-19T10:28:36;7.17;;;3.37;;
62798;SDS011;48842;51.046;13.796;2023-05-19T10:31:05;12.07;;;3.37;;
62798;SDS011;48842;51.046;13.796;2023-05-19T10:36:24;4.77;;;4.07;;
62798;SDS011;48842;51.046;13.796;2023-05-19T10:38:59;6.10;;;3.10;;
62798;SDS011;48842;51.046;13.796;2023-05-19T10:41:39;8.53;;;3.50;;
62798;SDS011;48842;51.046;13.796;2023-05-19T10:44:29;6.13;;;3.53;;
62798;SDS011;48842;51.046;13.796;2023-05-19T10:47:07;3.70;;;3.37;;
62798;SDS011;48842;51.046;13.796;2023-05-19T10:49:35;3.80;;;3.17;;
62798;SDS011;48842;51.046;13.796;2023-05-19T10:52:01;3.67;;;3.37;;
62798;SDS011;48842;51.046;13.796;2023-05-19T10:54:41;4.93;;;3.10;;
62798;SDS011;48842;51.046;13.796;2023-05-19T10:57:16;5.33;;;3.40;;
62798;SDS011;48842;51.046;13.796;2023-05-19T10:59:41;3.60;;;3.10;;
62798;SDS011;48842;51.046;13.796;2023-05-19T11:02:35;10.23;;;3.60;;
62798;SDS011;48842;51.046;13.796;2023-05-19T11:05:09;5.60;;;3.50;;
62798;SDS011;48842;51.046;13.796;2023-05-19T11:07:41;3.90;;;3.60;;
62798;SDS011;48842;51.046;13.796;2023-05-19T11:10:09;8.93;;;3.07;;
62798;SDS011;48842;51.046;13.796;2023-05-19T11:12:38;4.47;;;3.10;;
62798;SDS011;48842;51.046;13.796;2023-05-19T11:15:06;4.73;;;3.17;;
62798;SDS011;48842;51.046;13.796;2023-05-19T11:17:35;5.93;;;3.60;;
62798;SDS011;48842;51.046;13.796;2023-05-19T11:20:00;3.60;;;2.67;;
62798;SDS011;48842;51.046;13.796;2023-05-19T11:22:26;6.57;;;2.70;;
62798;SDS011;48842;51.046;13.796;2023-05-19T11:24:55;3.30;;;2.67;;
62798;SDS011;48842;51.046;13.796;2023-05-19T11:29:51;3.17;;;2.90;;
62798;SDS011;48842;51.046;13.796;2023-05-19T11:32:18;4.77;;;2.63;;
62798;SDS011;48842;51.046;13.796;2023-05-19T11:34:44;3.27;;;2.97;;
62798;SDS011;48842;51.046;13.796;2023-05-19T11:37:12;4.33;;;2.50;;
62798;SDS011;48842;51.046;13.796;2023-05-19T11:39:37;3.77;;;2.80;;
62798;SDS011;48842;51.046;13.796;2023-05-19T11:42:03;2.97;;;2.77;;
62798;SDS011;48842;51.046;13.796;2023-05-19T11:44:28;8.90;;;3.03;;
62798;SDS011;48842;51.046;13.796;2023-05-19T11:46:54;5.20;;;3.40;;
62798;SDS011;48842;51.046;13.796;2023-05-19T11:49:19;7.17;;;3.30;;
62798;SDS011;48842;51.046;13.796;2023-05-19T11:51:44;4.20;;;2.93;;
62798;SDS011;48842;51.046;13.796;2023-05-19T11:54:11;6.13;;;2.80;;
62798;SDS011;48842;51.046;13.796;2023-05-19T11:56:40;2.63;;;2.43;;
62798;SDS011;48842;51.046;13.796;2023-05-19T11:59:07;6.50;;;2.93;;
62798;SDS011;48842;51.046;13.796;2023-05-19T12:01:33;5.40;;;3.17;;
62798;SDS011;48842;51.046;13.796;2023-05-19T12:03:59;2.70;;;2.50;;
62798;SDS011;48842;51.046;13.796;2023-05-19T12:06:25;4.77;;;2.90;;
62798;SDS011;48842;51.046;13.796;2023-05-19T12:08:50;4.50;;;3.03;;
62798;SDS011;48842;51.046;13.796;2023-05-19T12:11:17;5.30;;;3.20;;
62798;SDS011;48842;51.046;13.796;2023-05-19T12:13:43;7.17;;;2.97;;
62798;SDS011;48842;51.046;13.796;2023-05-19T12:16:08;3.07;;;2.83;;
62798;SDS011;48842;51.046;13.796;2023-05-19T12:18:37;2.90;;;2.70;;
62798;SDS011;48842;51.046;13.796;2023-05-19T12:21:04;4.33;;;3.57;;
62798;SDS011;48842;51.046;13.796;2023-05-19T12:23:29;4.77;;;3.60;;
62798;SDS011;48842;51.046;13.796;2023-05-19T12:25:57;4.63;;;3.63;;
62798;SDS011;48842;51.046;13.796;2023-05-19T12:28:23;4.43;;;3.23;;
62798;SDS011;48842;51.046;13.796;2023-05-19T12:30:49;3.63;;;3.30;;
62798;SDS011;48842;51.046;13.796;2023-05-19T12:33:16;5.97;;;3.57;;
62798;SDS011;48842;51.046;13.796;2023-05-19T12:35:43;4.70;;;2.90;;
62798;SDS011;48842;51.046;13.796;2023-05-19T12:38:10;4.23;;;3.80;;
62798;SDS011;48842;51.046;13.796;2023-05-19T12:40:35;3.77;;;3.33;;
62798;SDS011;48842;51.046;13.796;2023-05-19T12:43:01;3.90;;;3.50;;
62798;SDS011;48842;51.046;13.796;2023-05-19T12:45:27;4.83;;;3.07;;
62798;SDS011;48842;51.046;13.796;2023-05-19T12:47:57;4.87;;;3.67;;
62798;SDS011;48842;51.046;13.796;2023-05-19T12:50:28;5.20;;;3.97;;
62798;SDS011;48842;51.046;13.796;2023-05-19T12:52:55;5.03;;;3.20;;
62798;SDS011;48842;51.046;13.796;2023-05-19T12:55:20;6.90;;;4.10;;
62798;SDS011;48842;51.046;13.796;2023-05-19T12:57:47;5.03;;;4.23;;
62798;SDS011;48842;51.046;13.796;2023-05-19T13:00:16;6.73;;;4.13;;
62798;SDS011;48842;51.046;13.796;2023-05-19T13:05:27;8.33;;;4.13;;
62798;SDS011;48842;51.046;13.796;2023-05-19T13:07:53;7.67;;;3.90;;
62798;SDS011;48842;51.046;13.796;2023-05-19T13:10:22;10.33;;;4.10;;
62798;SDS011;48842;51.046;13.796;2023-05-19T13:12:50;4.60;;;3.90;;
62798;SDS011;48842;51.046;13.796;2023-05-19T13:15:16;5.37;;;4.23;;
62798;SDS011;48842;51.046;13.796;2023-05-19T13:17:41;4.70;;;4.30;;
62798;SDS011;48842;51.046;13.796;2023-05-19T13:20:06;4.50;;;4.10;;
62798;SDS011;48842;51.046;13.796;2023-05-19T13:22:32;8.20;;;4.50;;
62798;SDS011;48842;51.046;13.796;2023-05-19T13:24:58;4.60;;;4.20;;
62798;SDS011;48842;51.046;13.796;2023-05-19T13:27:23;4.53;;;3.70;;
62798;SDS011;48842;51.046;13.796;2023-05-19T13:29:49;3.87;;;3.50;;
62798;SDS011;48842;51.046;13.796;2023-05-19T13:32:14;7.07;;;3.67;;
62798;SDS011;48842;51.046;13.796;2023-05-19T13:34:39;4.00;;;3.60;;
62798;SDS011;48842;51.046;13.796;2023-05-19T13:37:04;8.60;;;5.07;;
62798;SDS011;48842;51.046;13.796;2023-05-19T13:39:32;5.20;;;4.27;;
62798;SDS011;48842;51.046;13.796;2023-05-19T13:41:57;5.00;;;4.10;;
62798;SDS011;48842;51.046;13.796;2023-05-19T13:44:23;7.40;;;4.13;;
62798;SDS011;48842;51.046;13.796;2023-05-19T13:46:49;6.73;;;4.23;;
62798;SDS011;48842;51.046;13.796;2023-05-19T13:49:15;4.37;;;3.97;;
62798;SDS011;48842;51.046;13.796;2023-05-19T13:51:41;4.47;;;4.07;;
62798;SDS011;48842;51.046;13.796;2023-05-19T13:54:07;4.40;;;4.00;;
62798;SDS011;48842;51.046;13.796;2023-05-19T13:56:33;3.20;;;3.00;;
62798;SDS011;48842;51.046;13.796;2023-05-19T13:58:58;4.33;;;3.90;;
62798;SDS011;48842;51.046;13.796;2023-05-19T14:01:23;5.40;;;4.27;;
62798;SDS011;48842;51.046;13.796;2023-05-19T14:03:48;5.17;;;4.00;;
62798;SDS011;48842;51.046;13.796;2023-05-19T14:06:14;4.23;;;3.83;;
62798;SDS011;48842;51.046;13.796;2023-05-19T14:08:39;3.80;;;3.50;;
62798;SDS011;48842;51.046;13.796;2023-05-19T14:11:05;4.00;;;3.40;;
62798;SDS011;48842;51.046;13.796;2023-05-19T14:13:30;5.17;;;4.07;;
62798;SDS011;48842;51.046;13.796;2023-05-19T14:15:55;4.43;;;3.83;;
62798;SDS011;48842;51.046;13.796;2023-05-19T14:18:20;5.10;;;4.70;;
62798;SDS011;48842;51.046;13.796;2023-05-19T14:20:46;5.50;;;4.97;;
62798;SDS011;48842;51.046;13.796;2023-05-19T14:23:11;5.50;;;4.60;;
62798;SDS011;48842;51.046;13.796;2023-05-19T14:25:36;7.87;;;6.00;;
62798;SDS011;48842;51.046;13.796;2023-05-19T14:28:01;4.93;;;4.53;;
62798;SDS011;48842;51.046;13.796;2023-05-19T14:30:27;4.97;;;4.57;;
62798;SDS011;48842;51.046;13.796;2023-05-19T14:32:52;7.53;;;4.20;;
62798;SDS011;48842;51.046;13.796;2023-05-19T14:35:18;9.27;;;5.40;;
62798;SDS011;48842;51.046;13.796;2023-05-19T14:37:43;5.50;;;4.40;;
62798;SDS011;48842;51.046;13.796;2023-05-19T14:40:08;8.33;;;5.03;;
62798;SDS011;48842;51.046;13.796;2023-05-19T14:42:34;5.10;;;4.60;;
62798;SDS011;48842;51.046;13.796;2023-05-19T14:44:59;10.40;;;5.30;;
62798;SDS011;48842;51.046;13.796;2023-05-19T14:47:25;5.87;;;5.27;;
62798;SDS011;48842;51.046;13.796;2023-05-19T14:49:50;6.57;;;5.07;;
62798;SDS011;48842;51.046;13.796;2023-05-19T14:52:15;7.40;;;4.53;;
62798;SDS011;48842;51.046;13.796;2023-05-19T14:54:41;4.33;;;3.97;;
62798;SDS011;48842;51.046;13.796;2023-05-19T14:57:06;6.40;;;4.40;;
62798;SDS011;48842;51.046;13.796;2023-05-19T14:59:35;11.27;;;4.87;;